Terminal Aerodrome Forecast
Issued by NWS Melbourne, FL

Home | Current Version | Previous Version | Text Only | Print | Product List | Glossary On
Versions: 1 2 3 4 5 6 7 8 9 10 11 12 13 14 15 16 17 18 19 20
670
FTUS42 KMLB 310526
TAFDAB
TAF
KDAB 310526Z 3106/0106 23005KT P6SM VCSH FEW045 BKN110 OVC300
      TEMPO 3106/3107 6SM -SHRA BR BKN040
     FM311400 27005KT P6SM SCT035
     FM311800 09008KT P6SM VCTS SCT035CB BKN250
     FM010000 VRB04KT P6SM FEW035 SCT110 BKN250=

USA.gov is the U.S. government's official web portal to all federal, state and local government web resources and services.